Time;durP1;ratioP1;P1;durP2;ratioP2;P2;SDS_P1;SDS_P2;PMS_P1;PMS_P2;Temp;Humidity;BMP_temperature;BMP_pressure;BME280_temperature;BME280_humidity;BME280_pressure;Samples;Min_cycle;Max_cycle;Signal;HPM_P1;HPM_P2
2024/02/10 00:00:56;;;;;;;;;;;9.90;99.90;;;;;;5023576;28;19917;-76
2024/02/10 00:03:23;;;;;;;;;;;9.90;99.90;;;;;;5042312;28;19927;-76
2024/02/10 00:05:48;;;;;;;;;;;9.90;99.90;;;;;;5006960;28;19917;-76
2024/02/10 00:08:14;;;;;;;;;;;10.00;99.90;;;;;;5016860;28;19917;-76
2024/02/10 00:10:44;;;;;;;;;;;10.00;99.90;;;;;;5029244;28;19921;-76
2024/02/10 00:13:11;;;;;;;;;;;10.00;99.90;;;;;;5035439;28;19928;-76
2024/02/10 00:15:40;;;;;;;;;;;10.00;99.90;;;;;;5008128;28;19921;-76
2024/02/10 00:18:10;;;;;;;;;;;10.00;99.90;;;;;;4997167;28;20245;-76
2024/02/10 00:20:37;;;;;;;;;;;10.00;99.90;;;;;;5019913;28;19959;-76
2024/02/10 00:23:04;;;;;;;;;;;10.10;99.90;;;;;;5028114;28;19917;-76
2024/02/10 00:25:31;;;;;;;;;;;10.00;99.90;;;;;;5048828;28;19916;-76
2024/02/10 00:28:00;;;;;;;;;;;10.00;99.90;;;;;;5038472;28;19913;-76
2024/02/10 00:30:32;;;;;;;;;;;10.00;99.90;;;;;;5020753;28;20044;-76
2024/02/10 00:32:59;;;;;;;;;;;10.00;99.90;;;;;;5012987;28;20353;-76
2024/02/10 00:35:25;;;;;;;;;;;10.00;99.90;;;;;;5030993;28;19921;-76
2024/02/10 00:38:07;;;;;;;;;;;10.00;99.90;;;;;;5131209;27;19920;-75
2024/02/10 00:40:33;;;;;;;;;;;10.00;99.90;;;;;;5065465;28;20006;-75
2024/02/10 00:43:00;;;;;;;;;;;10.00;99.90;;;;;;5111571;28;19915;-76
2024/02/10 00:45:27;;;;;;;;;;;10.00;99.90;;;;;;5076276;28;20002;-75
2024/02/10 00:47:55;;;;;;;;;;;10.00;99.90;;;;;;5093317;28;19912;-76
2024/02/10 00:50:22;;;;;;;;;;;10.00;99.90;;;;;;5067864;28;20000;-76
2024/02/10 00:52:49;;;;;;;;;;;10.00;99.90;;;;;;5118890;28;19927;-75
2024/02/10 00:55:25;;;;;;;;;;;10.00;99.90;;;;;;5126840;28;19977;-76
2024/02/10 00:57:52;;;;;;;;;;;10.00;99.90;;;;;;5111426;27;20218;-76
2024/02/10 01:00:21;;;;;;;;;;;10.00;99.90;;;;;;5114968;28;19927;-76
2024/02/10 01:02:47;;;;;;;;;;;10.00;99.90;;;;;;5107666;28;19926;-76
2024/02/10 01:05:14;;;;;;;;;;;10.00;99.90;;;;;;5118548;28;19916;-76
2024/02/10 01:07:40;;;;;;;;;;;10.00;99.90;;;;;;5066940;28;20328;-76
2024/02/10 01:10:06;;;;;;;;;;;10.00;99.90;;;;;;5090285;28;20008;-76
2024/02/10 01:12:33;;;;;;;;;;;10.00;99.90;;;;;;5073760;28;19996;-75
2024/02/10 01:14:59;;;;;;;;;;;10.00;99.90;;;;;;5070916;28;19916;-76
2024/02/10 01:17:26;;;;;;;;;;;10.00;99.90;;;;;;5109693;28;19984;-75
2024/02/10 01:19:54;;;;;;;;;;;10.00;99.90;;;;;;5058620;28;20336;-75
2024/02/10 01:22:25;;;;;;;;;;;9.90;99.90;;;;;;5093716;28;19957;-76
2024/02/10 01:24:58;;;;;;;;;;;9.90;99.90;;;;;;5074601;28;19912;-77
2024/02/10 01:27:26;;;;;;;;;;;10.00;99.90;;;;;;5109145;28;19940;-76
2024/02/10 01:29:55;;;;;;;;;;;9.90;99.90;;;;;;5075357;28;19997;-76
2024/02/10 01:32:23;;;;;;;;;;;9.90;99.90;;;;;;5092372;28;19916;-76
2024/02/10 01:34:50;;;;;;;;;;;9.90;99.90;;;;;;5074614;28;20278;-76
2024/02/10 01:37:20;;;;;;;;;;;9.90;99.90;;;;;;5074753;28;19924;-76
2024/02/10 01:39:47;;;;;;;;;;;9.90;99.90;;;;;;5086126;28;20333;-75
2024/02/10 01:42:20;;;;;;;;;;;9.90;99.90;;;;;;5068993;28;19987;-76
2024/02/10 01:44:46;;;;;;;;;;;9.80;99.90;;;;;;5076423;28;20263;-75
2024/02/10 01:47:12;;;;;;;;;;;9.80;99.90;;;;;;5078877;28;20008;-76
2024/02/10 01:49:41;;;;;;;;;;;9.80;99.90;;;;;;5053851;28;19917;-76
2024/02/10 01:52:07;;;;;;;;;;;9.80;99.90;;;;;;5070584;28;19982;-76
2024/02/10 01:54:33;;;;;;;;;;;9.80;99.90;;;;;;5072466;28;19931;-76
2024/02/10 01:57:01;;;;;;;;;;;9.80;99.90;;;;;;5072441;28;19974;-77
2024/02/10 01:59:26;;;;;;;;;;;9.80;99.90;;;;;;5072348;28;19994;-76
2024/02/10 02:01:52;;;;;;;;;;;9.80;99.90;;;;;;5054859;28;20267;-76
2024/02/10 02:04:22;;;;;;;;;;;9.80;99.90;;;;;;5088838;28;19921;-76
2024/02/10 02:06:48;;;;;;;;;;;9.80;99.90;;;;;;5055072;28;19939;-75
2024/02/10 02:09:15;;;;;;;;;;;9.80;99.90;;;;;;5071528;28;19921;-77
2024/02/10 02:11:44;;;;;;;;;;;9.80;99.90;;;;;;5071402;28;19978;-76
2024/02/10 02:14:10;;;;;;;;;;;9.80;99.90;;;;;;5084692;28;19913;-76
2024/02/10 02:16:39;;;;;;;;;;;9.80;99.90;;;;;;5038576;28;19982;-76
2024/02/10 02:19:05;;;;;;;;;;;9.80;99.90;;;;;;5071304;28;20549;-76
2024/02/10 02:21:32;;;;;;;;;;;9.80;99.90;;;;;;5038631;28;19917;-76
2024/02/10 02:23:59;;;;;;;;;;;9.80;99.90;;;;;;5046340;28;19955;-76
2024/02/10 02:26:24;;;;;;;;;;;9.80;99.90;;;;;;5072200;28;19953;-76
2024/02/10 02:28:50;;;;;;;;;;;9.80;99.90;;;;;;5088681;28;19913;-77
2024/02/10 02:31:17;;;;;;;;;;;9.80;99.90;;;;;;5072157;28;20020;-77
2024/02/10 02:33:43;;;;;;;;;;;9.80;99.90;;;;;;5056197;28;19952;-77
2024/02/10 02:36:09;;;;;;;;;;;9.80;99.90;;;;;;5072198;28;20010;-78
2024/02/10 02:38:38;;;;;;;;;;;9.80;99.90;;;;;;5072782;28;19913;-77
2024/02/10 02:41:04;;;;;;;;;;;9.80;99.90;;;;;;5072177;28;19935;-77
2024/02/10 02:43:35;;;;;;;;;;;9.80;99.90;;;;;;5064111;28;19921;-77
2024/02/10 02:46:03;;;;;;;;;;;9.80;99.90;;;;;;5057393;28;19919;-77
2024/02/10 02:48:30;;;;;;;;;;;9.80;99.90;;;;;;5070585;28;19917;-80
2024/02/10 02:50:55;;;;;;;;;;;9.80;99.90;;;;;;5072411;28;19921;-77
2024/02/10 02:53:25;;;;;;;;;;;9.80;99.90;;;;;;5069173;28;19921;-77
2024/02/10 02:55:51;;;;;;;;;;;9.80;99.90;;;;;;5068384;28;19917;-77
2024/02/10 02:58:19;;;;;;;;;;;9.80;99.90;;;;;;5051064;28;19920;-77
2024/02/10 03:00:48;;;;;;;;;;;9.80;99.90;;;;;;5055079;28;19920;-77
2024/02/10 03:03:14;;;;;;;;;;;9.80;99.90;;;;;;5071566;28;19916;-78
2024/02/10 03:05:40;;;;;;;;;;;9.80;99.90;;;;;;5054975;28;19970;-77
2024/02/10 03:08:06;;;;;;;;;;;9.80;99.90;;;;;;5037704;28;19917;-78
2024/02/10 03:10:32;;;;;;;;;;;9.80;99.90;;;;;;5053463;28;19913;-78
2024/02/10 03:12:58;;;;;;;;;;;9.80;99.90;;;;;;5039486;28;19917;-75
2024/02/10 03:15:24;;;;;;;;;;;9.80;99.90;;;;;;5039366;28;20229;-77
2024/02/10 03:17:49;;;;;;;;;;;9.80;99.90;;;;;;5051597;28;20007;-77
2024/02/10 03:20:28;;;;;;;;;;;9.80;99.90;;;;;;5061388;28;19916;-76
2024/02/10 03:23:02;;;;;;;;;;;9.80;99.90;;;;;;5038989;28;19917;-76
2024/02/10 03:25:28;;;;;;;;;;;9.80;99.90;;;;;;5040337;28;19921;-77
2024/02/10 03:27:55;;;;;;;;;;;9.80;99.90;;;;;;5051678;28;20399;-76
2024/02/10 03:30:25;;;;;;;;;;;9.80;99.90;;;;;;5038514;28;19923;-77
2024/02/10 03:32:54;;;;;;;;;;;9.80;99.90;;;;;;5054694;28;20683;-76
2024/02/10 03:35:21;;;;;;;;;;;9.80;99.90;;;;;;5070188;28;19962;-76
2024/02/10 03:37:47;;;;;;;;;;;9.80;99.90;;;;;;5082390;28;19978;-76
2024/02/10 03:40:19;;;;;;;;;;;9.90;99.90;;;;;;5020766;28;19917;-76
2024/02/10 03:42:45;;;;;;;;;;;9.80;99.90;;;;;;5085061;28;19923;-76
2024/02/10 03:45:14;;;;;;;;;;;9.80;99.90;;;;;;5020168;28;19917;-76
2024/02/10 03:47:42;;;;;;;;;;;9.80;99.90;;;;;;5070020;28;19917;-76
2024/02/10 03:50:09;;;;;;;;;;;9.80;99.90;;;;;;5070086;28;19917;-75
2024/02/10 03:52:35;;;;;;;;;;;9.80;99.90;;;;;;5070123;28;19924;-76
2024/02/10 03:55:01;;;;;;;;;;;9.80;99.90;;;;;;5025932;28;20317;-75
2024/02/10 03:57:30;;;;;;;;;;;9.80;99.90;;;;;;5036006;28;19921;-76
2024/02/10 03:59:56;;;;;;;;;;;9.80;99.90;;;;;;5037005;28;19999;-76
2024/02/10 04:02:21;;;;;;;;;;;9.80;99.90;;;;;;5037203;28;20003;-76
2024/02/10 04:04:50;;;;;;;;;;;9.80;99.90;;;;;;5024646;28;19948;-76
2024/02/10 04:07:17;;;;;;;;;;;9.80;99.90;;;;;;5065453;28;19959;-76
2024/02/10 04:09:43;;;;;;;;;;;9.80;99.90;;;;;;5086430;28;19917;-76
2024/02/10 04:12:09;;;;;;;;;;;9.80;99.90;;;;;;5085849;28;19999;-76
2024/02/10 04:14:35;;;;;;;;;;;9.70;99.90;;;;;;5069019;28;19912;-76
2024/02/10 04:17:01;;;;;;;;;;;9.70;99.90;;;;;;5069208;28;19917;-76
2024/02/10 04:19:30;;;;;;;;;;;9.70;99.90;;;;;;5069465;28;20007;-76
2024/02/10 04:21:57;;;;;;;;;;;9.70;99.90;;;;;;5085219;28;19966;-76
2024/02/10 04:24:23;;;;;;;;;;;9.70;99.90;;;;;;5036142;28;19966;-77
2024/02/10 04:26:48;;;;;;;;;;;9.70;99.90;;;;;;5058510;28;20567;-76
2024/02/10 04:29:16;;;;;;;;;;;9.70;99.90;;;;;;5053811;28;19913;-76
2024/02/10 04:31:44;;;;;;;;;;;9.70;99.90;;;;;;5069771;28;19913;-77
2024/02/10 04:34:10;;;;;;;;;;;9.70;99.90;;;;;;5061996;28;19920;-76
2024/02/10 04:36:36;;;;;;;;;;;9.70;99.90;;;;;;5061766;28;19921;-76
2024/02/10 04:39:05;;;;;;;;;;;9.70;99.90;;;;;;5085155;28;20217;-76
2024/02/10 04:41:31;;;;;;;;;;;9.70;99.90;;;;;;5068511;28;20661;-76
2024/02/10 04:43:56;;;;;;;;;;;9.70;99.90;;;;;;5053136;28;19923;-76
2024/02/10 04:46:23;;;;;;;;;;;9.70;99.90;;;;;;5053560;28;19971;-76
2024/02/10 04:48:52;;;;;;;;;;;9.70;99.90;;;;;;5058523;28;19923;-76
2024/02/10 04:51:23;;;;;;;;;;;9.70;99.90;;;;;;5032873;28;19921;-77
2024/02/10 04:53:48;;;;;;;;;;;9.70;99.90;;;;;;5052408;28;19952;-76
2024/02/10 04:56:20;;;;;;;;;;;9.70;99.90;;;;;;5066191;28;20365;-77
2024/02/10 04:58:49;;;;;;;;;;;9.70;99.90;;;;;;5077706;28;19942;-77
2024/02/10 05:01:19;;;;;;;;;;;9.70;99.90;;;;;;5047726;28;19917;-77
2024/02/10 05:03:48;;;;;;;;;;;9.70;99.90;;;;;;5044161;28;20330;-77
2024/02/10 05:06:14;;;;;;;;;;;9.70;99.90;;;;;;5069242;28;20011;-77
2024/02/10 05:08:41;;;;;;;;;;;9.70;99.90;;;;;;5069785;28;19916;-77
2024/02/10 05:11:08;;;;;;;;;;;9.70;99.90;;;;;;5047919;28;20268;-76
2024/02/10 05:13:33;;;;;;;;;;;9.70;99.90;;;;;;5048976;28;19917;-76
2024/02/10 05:15:59;;;;;;;;;;;9.70;99.90;;;;;;5081062;28;19928;-76
2024/02/10 05:18:25;;;;;;;;;;;9.70;99.90;;;;;;5052843;28;20329;-76
2024/02/10 05:20:52;;;;;;;;;;;9.80;99.90;;;;;;5052552;28;20012;-76
2024/02/10 05:23:19;;;;;;;;;;;9.70;99.90;;;;;;5080669;28;19919;-76
2024/02/10 05:25:45;;;;;;;;;;;9.70;99.90;;;;;;5056902;28;20321;-76
2024/02/10 05:28:10;;;;;;;;;;;9.80;99.90;;;;;;5055890;28;19917;-75
2024/02/10 05:30:37;;;;;;;;;;;9.80;99.90;;;;;;5067635;28;20412;-75
2024/02/10 05:33:04;;;;;;;;;;;9.80;99.90;;;;;;5055945;28;19921;-76
2024/02/10 05:35:31;;;;;;;;;;;9.80;99.90;;;;;;5056352;28;19999;-76
2024/02/10 05:37:58;;;;;;;;;;;9.80;99.90;;;;;;5035476;28;20000;-76
2024/02/10 05:40:24;;;;;;;;;;;9.80;99.90;;;;;;5083244;28;19917;-76
2024/02/10 05:42:50;;;;;;;;;;;9.80;99.90;;;;;;5051966;28;19917;-76
2024/02/10 05:45:18;;;;;;;;;;;9.80;99.90;;;;;;5055868;28;19916;-76
2024/02/10 05:47:50;;;;;;;;;;;9.80;99.90;;;;;;5056971;28;20306;-76
2024/02/10 05:50:19;;;;;;;;;;;9.80;99.90;;;;;;5073735;28;19917;-76
2024/02/10 05:52:45;;;;;;;;;;;9.80;99.90;;;;;;5057295;28;19917;-77
2024/02/10 05:55:11;;;;;;;;;;;9.80;99.90;;;;;;5055672;28;19917;-76
2024/02/10 05:57:38;;;;;;;;;;;9.80;99.90;;;;;;5038854;28;19917;-76
2024/02/10 06:00:09;;;;;;;;;;;9.70;99.90;;;;;;5062738;28;19912;-75
2024/02/10 06:02:38;;;;;;;;;;;9.70;99.90;;;;;;5088924;28;19931;-76
2024/02/10 06:05:10;;;;;;;;;;;9.80;99.90;;;;;;5089727;28;19917;-76
2024/02/10 06:07:41;;;;;;;;;;;9.70;99.90;;;;;;5056305;28;20309;-77
2024/02/10 06:10:15;;;;;;;;;;;9.70;99.90;;;;;;5072239;28;19917;-76
2024/02/10 06:12:46;;;;;;;;;;;9.70;99.90;;;;;;5056099;28;19913;-76
2024/02/10 06:15:12;;;;;;;;;;;9.70;99.90;;;;;;5055884;28;19916;-76
2024/02/10 06:17:42;;;;;;;;;;;9.70;99.90;;;;;;5036340;28;19936;-77
2024/02/10 06:20:12;;;;;;;;;;;9.70;99.90;;;;;;5041347;28;19933;-77
2024/02/10 06:22:38;;;;;;;;;;;9.70;99.90;;;;;;5071561;28;20252;-77
2024/02/10 06:25:04;;;;;;;;;;;9.70;99.90;;;;;;5071999;28;19913;-77
2024/02/10 06:27:31;;;;;;;;;;;9.70;99.90;;;;;;5055698;28;19920;-76
2024/02/10 06:29:58;;;;;;;;;;;9.70;99.90;;;;;;5056713;28;20039;-76
2024/02/10 06:32:25;;;;;;;;;;;9.70;99.90;;;;;;5055866;28;19917;-76
2024/02/10 06:34:51;;;;;;;;;;;9.60;99.90;;;;;;5053823;28;19917;-76
2024/02/10 06:37:25;;;;;;;;;;;9.60;99.90;;;;;;5065271;28;19925;-76
2024/02/10 06:39:52;;;;;;;;;;;9.70;99.90;;;;;;5038569;28;19928;-76
2024/02/10 06:42:18;;;;;;;;;;;9.70;99.90;;;;;;5076862;28;19928;-76
2024/02/10 06:44:44;;;;;;;;;;;9.60;99.90;;;;;;5055469;28;20314;-76
2024/02/10 06:47:10;;;;;;;;;;;9.60;99.90;;;;;;5041835;28;19923;-77
2024/02/10 06:49:36;;;;;;;;;;;9.60;99.90;;;;;;5071152;28;20312;-76
2024/02/10 06:52:03;;;;;;;;;;;9.50;99.90;;;;;;5071415;28;19916;-76
2024/02/10 06:54:30;;;;;;;;;;;9.50;99.90;;;;;;5050762;28;19925;-76
2024/02/10 06:56:58;;;;;;;;;;;9.60;99.90;;;;;;5060848;28;19921;-76
2024/02/10 06:59:25;;;;;;;;;;;9.50;99.90;;;;;;5054274;28;19913;-76
2024/02/10 07:01:54;;;;;;;;;;;9.50;99.90;;;;;;5043750;28;20630;-76
2024/02/10 07:04:22;;;;;;;;;;;9.60;99.90;;;;;;5067621;28;19913;-76
2024/02/10 07:06:53;;;;;;;;;;;9.50;99.90;;;;;;5050852;28;19917;-76
2024/02/10 07:09:21;;;;;;;;;;;9.50;99.90;;;;;;5053729;28;19916;-76
2024/02/10 07:11:49;;;;;;;;;;;9.60;99.90;;;;;;5055489;28;19995;-76
2024/02/10 07:14:19;;;;;;;;;;;9.60;99.90;;;;;;5034148;28;20032;-76
2024/02/10 07:16:46;;;;;;;;;;;9.60;99.90;;;;;;5040286;28;19924;-76
2024/02/10 07:19:12;;;;;;;;;;;9.60;99.90;;;;;;5056480;28;20023;-76
2024/02/10 07:21:39;;;;;;;;;;;9.60;99.90;;;;;;5054424;28;20011;-76
2024/02/10 07:24:07;;;;;;;;;;;9.50;99.90;;;;;;5034462;28;19913;-76
2024/02/10 07:26:33;;;;;;;;;;;9.60;99.90;;;;;;5074548;28;20589;-76
2024/02/10 07:29:00;;;;;;;;;;;9.60;99.90;;;;;;5081709;28;20003;-76
2024/02/10 07:31:30;;;;;;;;;;;9.60;99.90;;;;;;5061939;28;19916;-76
2024/02/10 07:33:59;;;;;;;;;;;9.60;99.90;;;;;;5066935;28;19916;-76
2024/02/10 07:36:32;;;;;;;;;;;9.60;99.90;;;;;;5085357;28;19956;-76
2024/02/10 07:38:59;;;;;;;;;;;9.50;99.90;;;;;;5049672;28;19928;-76
2024/02/10 07:41:24;;;;;;;;;;;9.50;99.90;;;;;;5053792;28;20588;-77
2024/02/10 07:43:51;;;;;;;;;;;9.50;99.90;;;;;;5054398;28;19948;-76
2024/02/10 07:46:17;;;;;;;;;;;9.50;99.90;;;;;;5054109;28;20198;-76
2024/02/10 07:48:45;;;;;;;;;;;9.50;99.90;;;;;;5036304;28;20609;-76
2024/02/10 07:51:11;;;;;;;;;;;9.50;99.90;;;;;;5053166;28;19924;-76
2024/02/10 07:53:36;;;;;;;;;;;9.60;99.90;;;;;;5053249;28;19917;-76
2024/02/10 07:56:02;;;;;;;;;;;9.60;99.90;;;;;;5069844;28;19970;-76
2024/02/10 07:58:29;;;;;;;;;;;9.60;99.90;;;;;;5069477;28;20549;-76
2024/02/10 08:00:58;;;;;;;;;;;9.50;99.90;;;;;;5053172;28;20299;-76
2024/02/10 08:03:26;;;;;;;;;;;9.60;99.90;;;;;;5047928;28;20264;-76
2024/02/10 08:05:52;;;;;;;;;;;9.60;99.90;;;;;;5053917;28;19912;-76
2024/02/10 08:08:23;;;;;;;;;;;9.60;99.90;;;;;;5078518;28;19916;-76
2024/02/10 08:10:49;;;;;;;;;;;9.60;99.90;;;;;;5036887;28;19917;-76
2024/02/10 08:13:15;;;;;;;;;;;9.60;99.90;;;;;;5035127;28;19924;-76
2024/02/10 08:15:40;;;;;;;;;;;9.60;99.90;;;;;;5068717;28;19917;-76
2024/02/10 08:18:08;;;;;;;;;;;9.60;99.90;;;;;;5068466;28;20074;-76
2024/02/10 08:20:37;;;;;;;;;;;9.60;99.90;;;;;;5068675;28;19917;-76
2024/02/10 08:23:05;;;;;;;;;;;9.60;99.90;;;;;;5052645;28;19913;-76
2024/02/10 08:25:31;;;;;;;;;;;9.70;99.90;;;;;;5047535;28;19942;-76
2024/02/10 08:27:59;;;;;;;;;;;9.70;99.90;;;;;;5052394;28;19939;-76
2024/02/10 08:30:25;;;;;;;;;;;9.70;99.90;;;;;;5085001;28;20025;-76
2024/02/10 08:32:53;;;;;;;;;;;9.70;99.90;;;;;;5052190;28;20353;-76
2024/02/10 08:35:19;;;;;;;;;;;9.80;99.90;;;;;;5035352;28;19916;-76
2024/02/10 08:37:45;;;;;;;;;;;9.80;99.90;;;;;;5035404;28;19932;-75
2024/02/10 08:40:11;;;;;;;;;;;9.80;99.90;;;;;;5071909;28;20007;-76
2024/02/10 08:42:37;;;;;;;;;;;9.80;99.90;;;;;;5096235;28;20655;-75
2024/02/10 08:45:05;;;;;;;;;;;9.80;99.90;;;;;;5038917;28;19924;-75
2024/02/10 08:47:31;;;;;;;;;;;9.80;99.90;;;;;;5036301;28;20081;-76
2024/02/10 08:49:56;;;;;;;;;;;9.80;99.90;;;;;;5089167;28;20011;-76
2024/02/10 08:52:22;;;;;;;;;;;9.80;99.90;;;;;;5054895;28;19962;-75
2024/02/10 08:54:48;;;;;;;;;;;9.90;99.90;;;;;;5054892;28;19916;-76
2024/02/10 08:57:15;;;;;;;;;;;9.90;99.90;;;;;;5088462;28;19979;-76
2024/02/10 08:59:45;;;;;;;;;;;9.90;99.90;;;;;;5054911;28;20013;-76
2024/02/10 09:02:11;;;;;;;;;;;9.90;99.90;;;;;;5075584;28;19917;-76
2024/02/10 09:04:41;;;;;;;;;;;10.00;99.90;;;;;;5059198;28;19916;-76
2024/02/10 09:07:06;;;;;;;;;;;10.00;99.90;;;;;;5075689;28;20382;-76
2024/02/10 09:09:33;;;;;;;;;;;10.10;99.90;;;;;;5076400;28;19916;-76
2024/02/10 09:11:59;;;;;;;;;;;10.10;99.90;;;;;;5047788;28;19973;-77
2024/02/10 09:14:25;;;;;;;;;;;10.20;99.90;;;;;;5075706;28;19942;-76
2024/02/10 09:16:50;;;;;;;;;;;10.20;99.90;;;;;;5076349;28;19917;-76
2024/02/10 09:19:17;;;;;;;;;;;10.20;99.90;;;;;;5059898;28;19924;-76
2024/02/10 09:21:44;;;;;;;;;;;10.30;99.90;;;;;;5053438;28;20635;-76
2024/02/10 09:24:13;;;;;;;;;;;10.30;99.90;;;;;;5049786;28;19919;-76
2024/02/10 09:26:39;;;;;;;;;;;10.40;99.90;;;;;;5044218;28;19989;-76
2024/02/10 09:29:05;;;;;;;;;;;10.40;99.90;;;;;;5077537;28;20401;-77
2024/02/10 09:31:30;;;;;;;;;;;10.50;99.90;;;;;;5079846;28;19917;-77
2024/02/10 09:33:57;;;;;;;;;;;10.50;99.90;;;;;;5112190;28;19920;-76
2024/02/10 09:36:23;;;;;;;;;;;10.60;99.90;;;;;;5061423;28;19920;-76
2024/02/10 09:38:50;;;;;;;;;;;10.60;99.90;;;;;;5057947;28;19927;-76
2024/02/10 09:41:17;;;;;;;;;;;10.70;99.90;;;;;;5097299;28;20240;-77
2024/02/10 09:43:46;;;;;;;;;;;10.70;99.90;;;;;;5078520;28;19926;-77
2024/02/10 09:46:11;;;;;;;;;;;10.80;99.90;;;;;;5056631;28;20308;-78
2024/02/10 09:48:41;;;;;;;;;;;10.90;99.90;;;;;;5062997;28;19963;-77
2024/02/10 09:51:07;;;;;;;;;;;11.00;99.90;;;;;;5045945;28;19913;-78
2024/02/10 09:53:33;;;;;;;;;;;11.10;99.90;;;;;;5063223;28;19923;-77
2024/02/10 09:56:00;;;;;;;;;;;11.20;99.90;;;;;;5093486;28;19946;-76
2024/02/10 09:58:28;;;;;;;;;;;11.20;99.90;;;;;;5076707;28;19994;-77
2024/02/10 10:00:53;;;;;;;;;;;11.40;99.90;;;;;;5059943;28;20664;-77
2024/02/10 10:03:19;;;;;;;;;;;11.50;99.90;;;;;;5052253;28;19962;-77
2024/02/10 10:05:45;;;;;;;;;;;11.60;99.90;;;;;;5073941;28;20271;-76
2024/02/10 10:08:11;;;;;;;;;;;11.80;99.90;;;;;;5104919;28;19917;-76
2024/02/10 10:10:37;;;;;;;;;;;11.90;99.90;;;;;;5076991;28;19946;-77
2024/02/10 10:13:06;;;;;;;;;;;12.10;99.90;;;;;;5056667;28;19913;-77
2024/02/10 10:15:31;;;;;;;;;;;12.20;99.90;;;;;;5064348;28;19912;-77
2024/02/10 10:17:58;;;;;;;;;;;12.30;99.90;;;;;;5076014;28;19916;-76
2024/02/10 10:20:24;;;;;;;;;;;12.40;99.90;;;;;;5042803;28;19923;-76
2024/02/10 10:22:50;;;;;;;;;;;12.50;99.90;;;;;;5041916;28;19912;-77
2024/02/10 10:25:16;;;;;;;;;;;12.60;99.90;;;;;;5058565;28;20229;-75
2024/02/10 10:27:41;;;;;;;;;;;12.70;99.90;;;;;;5091660;28;19916;-76
2024/02/10 10:30:10;;;;;;;;;;;12.90;99.90;;;;;;5075822;28;19917;-76
2024/02/10 10:32:37;;;;;;;;;;;13.00;99.90;;;;;;5080015;28;20343;-76
2024/02/10 10:35:03;;;;;;;;;;;13.20;99.90;;;;;;5091716;28;20004;-77
2024/02/10 10:37:28;;;;;;;;;;;13.40;99.90;;;;;;5049254;28;20019;-76
2024/02/10 10:39:54;;;;;;;;;;;13.50;99.90;;;;;;5055117;28;19917;-76
2024/02/10 10:42:22;;;;;;;;;;;13.70;99.90;;;;;;5065845;28;19924;-76
2024/02/10 10:44:50;;;;;;;;;;;13.70;99.90;;;;;;5056660;28;19924;-77
2024/02/10 10:47:23;;;;;;;;;;;13.80;99.90;;;;;;5070663;28;20602;-77
2024/02/10 10:49:54;;;;;;;;;;;14.00;99.90;;;;;;5088626;28;20006;-77
2024/02/10 10:52:20;;;;;;;;;;;14.30;99.90;;;;;;5039532;28;19912;-76
2024/02/10 10:54:53;;;;;;;;;;;14.50;99.90;;;;;;5023263;28;20361;-77
2024/02/10 10:57:21;;;;;;;;;;;14.70;99.90;;;;;;5023377;28;19932;-77
2024/02/10 10:59:58;;;;;;;;;;;15.00;99.90;;;;;;5034364;28;19919;-77
2024/02/10 11:02:25;;;;;;;;;;;15.40;99.90;;;;;;5055611;28;19923;-76
2024/02/10 11:05:02;;;;;;;;;;;15.90;99.90;;;;;;5072239;28;19913;-76
2024/02/10 11:07:36;;;;;;;;;;;16.30;99.90;;;;;;5071798;28;19928;-77
2024/02/10 11:10:03;;;;;;;;;;;16.80;99.90;;;;;;5028496;28;19916;-76
2024/02/10 11:12:31;;;;;;;;;;;17.20;99.90;;;;;;5043395;28;19981;-77
2024/02/10 11:14:57;;;;;;;;;;;17.10;99.90;;;;;;5074969;28;19913;-76
2024/02/10 11:17:29;;;;;;;;;;;16.90;99.90;;;;;;5034442;28;19974;-75
2024/02/10 11:19:58;;;;;;;;;;;17.40;99.90;;;;;;5058575;28;19927;-75
2024/02/10 11:22:30;;;;;;;;;;;17.90;99.90;;;;;;5024078;28;20011;-75
2024/02/10 11:24:57;;;;;;;;;;;17.50;99.90;;;;;;5068856;28;19990;-76
2024/02/10 11:27:26;;;;;;;;;;;18.00;99.90;;;;;;5067754;28;19917;-76
2024/02/10 11:29:58;;;;;;;;;;;18.30;99.90;;;;;;5040746;28;20456;-76
2024/02/10 11:32:31;;;;;;;;;;;18.60;99.90;;;;;;5076534;28;20011;-78
2024/02/10 11:34:57;;;;;;;;;;;18.90;99.90;;;;;;5066386;28;19916;-78
2024/02/10 11:37:26;;;;;;;;;;;18.80;99.90;;;;;;5066344;28;20398;-75
2024/02/10 11:39:57;;;;;;;;;;;19.00;99.90;;;;;;5039812;28;20400;-79
2024/02/10 11:42:23;;;;;;;;;;;19.00;99.90;;;;;;5032132;28;19917;-77
2024/02/10 11:44:50;;;;;;;;;;;18.50;99.90;;;;;;5016594;28;19921;-75
2024/02/10 11:47:16;;;;;;;;;;;18.70;99.90;;;;;;5063955;28;19963;-76
2024/02/10 11:49:43;;;;;;;;;;;19.20;99.90;;;;;;5055662;28;20482;-76
2024/02/10 11:52:09;;;;;;;;;;;19.30;99.90;;;;;;5016370;28;19917;-75
2024/02/10 11:54:36;;;;;;;;;;;19.30;99.90;;;;;;5020990;28;19917;-78
2024/02/10 11:57:06;;;;;;;;;;;19.30;99.90;;;;;;5046395;28;19921;-75
2024/02/10 11:59:35;;;;;;;;;;;18.70;99.90;;;;;;5047079;28;19917;-77
2024/02/10 12:02:01;;;;;;;;;;;18.80;99.90;;;;;;5049116;28;20241;-77
2024/02/10 12:04:28;;;;;;;;;;;18.60;99.90;;;;;;5048427;28;20217;-77
2024/02/10 12:06:54;;;;;;;;;;;18.30;99.90;;;;;;5048889;28;19917;-76
2024/02/10 12:09:20;;;;;;;;;;;17.90;99.90;;;;;;5048394;28;19967;-76
2024/02/10 12:11:48;;;;;;;;;;;17.60;99.90;;;;;;5044095;28;20313;-76
2024/02/10 12:14:15;;;;;;;;;;;17.40;99.90;;;;;;5049557;28;19955;-76
2024/02/10 12:16:43;;;;;;;;;;;17.60;99.90;;;;;;5029255;28;20368;-77
2024/02/10 12:19:09;;;;;;;;;;;17.60;99.90;;;;;;5055913;28;19929;-76
2024/02/10 12:21:40;;;;;;;;;;;17.30;99.90;;;;;;5047946;28;19921;-76
2024/02/10 12:24:06;;;;;;;;;;;17.10;99.90;;;;;;5048090;28;19917;-77
2024/02/10 12:26:32;;;;;;;;;;;16.90;99.90;;;;;;5049515;28;20372;-76
2024/02/10 12:28:58;;;;;;;;;;;16.70;99.90;;;;;;5037631;28;19983;-76
2024/02/10 12:31:23;;;;;;;;;;;17.10;99.90;;;;;;5048322;28;19913;-76
2024/02/10 12:33:54;;;;;;;;;;;17.40;99.90;;;;;;5048685;28;20341;-76
2024/02/10 12:36:23;;;;;;;;;;;17.70;99.90;;;;;;5065036;28;19924;-76
2024/02/10 12:38:50;;;;;;;;;;;17.60;99.90;;;;;;5081175;28;20219;-75
2024/02/10 12:41:17;;;;;;;;;;;17.80;99.90;;;;;;5048159;28;19990;-77
2024/02/10 12:43:43;;;;;;;;;;;18.00;99.90;;;;;;5064144;28;20293;-76
2024/02/10 12:46:12;;;;;;;;;;;18.00;99.90;;;;;;5081754;28;20253;-75
2024/02/10 12:48:38;;;;;;;;;;;17.80;99.90;;;;;;5081612;28;19916;-75
2024/02/10 12:51:03;;;;;;;;;;;17.70;99.90;;;;;;5030856;28;19917;-75
2024/02/10 12:53:29;;;;;;;;;;;18.00;99.90;;;;;;5031080;28;19921;-76
2024/02/10 12:55:54;;;;;;;;;;;18.30;99.90;;;;;;5045563;28;19928;-75
2024/02/10 12:58:20;;;;;;;;;;;18.80;99.90;;;;;;5048677;28;20018;-76
2024/02/10 13:00:46;;;;;;;;;;;19.20;99.90;;;;;;5064421;28;20321;-77
2024/02/10 13:03:12;;;;;;;;;;;19.50;99.90;;;;;;5029258;28;19920;-76
2024/02/10 13:05:37;;;;;;;;;;;19.80;99.90;;;;;;5076078;28;20055;-76
2024/02/10 13:08:03;;;;;;;;;;;19.80;99.90;;;;;;5077630;28;19916;-75
2024/02/10 13:10:29;;;;;;;;;;;;;;;;;;5058710;28;19921;-76
2024/02/10 13:12:56;;;;;;;;;;;20.00;99.90;;;;;;5045142;28;19924;-78
2024/02/10 13:15:25;;;;;;;;;;;20.30;99.90;;;;;;5071177;28;20304;-77
2024/02/10 13:17:51;;;;;;;;;;;20.30;99.90;;;;;;5080292;28;20398;-77
2024/02/10 13:20:20;;;;;;;;;;;20.10;99.90;;;;;;5081854;28;20279;-76
2024/02/10 13:22:47;;;;;;;;;;;19.70;99.90;;;;;;5028930;28;19917;-77
2024/02/10 13:25:13;;;;;;;;;;;19.70;99.90;;;;;;5064097;28;19947;-76
2024/02/10 13:27:38;;;;;;;;;;;19.20;99.90;;;;;;5063673;28;19963;-76
2024/02/10 13:30:08;;;;;;;;;;;18.80;99.90;;;;;;5058073;28;19917;-76
2024/02/10 13:32:37;;;;;;;;;;;18.30;99.90;;;;;;5015171;28;19917;-76
2024/02/10 13:35:03;;;;;;;;;;;18.10;99.90;;;;;;5055184;28;19932;-76
2024/02/10 14:04:52;;;;;;;;;;;16.20;99.90;;;;;;5042630;28;20388;-75
2024/02/10 14:09:55;;;;;;;;;;;15.70;99.90;;;;;;5077216;28;20316;-77
2024/02/10 14:12:20;;;;;;;;;;;15.40;99.90;;;;;;5085225;28;19925;-76
2024/02/10 14:14:47;;;;;;;;;;;15.40;99.90;;;;;;5053531;28;20206;-76
2024/02/10 14:17:16;;;;;;;;;;;15.20;99.90;;;;;;5067299;28;20708;-77
2024/02/10 14:19:50;;;;;;;;;;;15.20;99.90;;;;;;5022776;28;19927;-76
2024/02/10 14:22:16;;;;;;;;;;;15.20;99.90;;;;;;5040219;28;19913;-77
2024/02/10 14:24:45;;;;;;;;;;;15.20;99.90;;;;;;5039790;28;20305;-76
2024/02/10 14:27:14;;;;;;;;;;;15.10;99.90;;;;;;5046553;28;19921;-76
2024/02/10 14:29:43;;;;;;;;;;;14.90;99.90;;;;;;5039154;28;19916;-76
2024/02/10 14:32:12;;;;;;;;;;;14.80;99.90;;;;;;5072432;28;19929;-76
2024/02/10 14:35:08;;;;;;;;;;;14.70;99.90;;;;;;5040953;28;19960;-79
2024/02/10 14:37:40;;;;;;;;;;;14.70;99.90;;;;;;5062663;28;20606;-78
2024/02/10 14:40:08;;;;;;;;;;;14.60;99.90;;;;;;5054757;28;19960;-77
2024/02/10 14:42:33;;;;;;;;;;;14.50;99.90;;;;;;5097013;28;19916;-77
2024/02/10 14:45:00;;;;;;;;;;;14.50;99.90;;;;;;5071701;28;19974;-77
2024/02/10 14:47:28;;;;;;;;;;;14.40;99.90;;;;;;5052426;28;20007;-78
2024/02/10 14:49:53;;;;;;;;;;;14.40;99.90;;;;;;5055474;28;19952;-76
2024/02/10 14:52:19;;;;;;;;;;;14.40;99.90;;;;;;5039015;28;19955;-77
2024/02/10 14:54:45;;;;;;;;;;;14.30;99.90;;;;;;5072180;28;19978;-77